sensor_id;sensor_type;location;lat;lon;timestamp;P1;durP1;ratioP1;P2;durP2;ratioP2
68938;SDS011;59064;45.294;11.816;2023-07-28T00:01:36;4.00;;;2.10;;
68938;SDS011;59064;45.294;11.816;2023-07-28T00:04:01;5.70;;;2.20;;
68938;SDS011;59064;45.294;11.816;2023-07-28T00:06:32;4.30;;;2.20;;
68938;SDS011;59064;45.294;11.816;2023-07-28T00:08:58;5.00;;;2.10;;
68938;SDS011;59064;45.294;11.816;2023-07-28T00:11:24;4.80;;;2.10;;
68938;SDS011;59064;45.294;11.816;2023-07-28T00:13:49;6.40;;;2.50;;
68938;SDS011;59064;45.294;11.816;2023-07-28T00:16:15;6.30;;;2.60;;
68938;SDS011;59064;45.294;11.816;2023-07-28T00:18:41;4.80;;;2.60;;
68938;SDS011;59064;45.294;11.816;2023-07-28T00:21:06;6.00;;;2.50;;
68938;SDS011;59064;45.294;11.816;2023-07-28T00:23:32;6.00;;;2.50;;
68938;SDS011;59064;45.294;11.816;2023-07-28T00:25:58;5.60;;;2.50;;
68938;SDS011;59064;45.294;11.816;2023-07-28T00:28:23;4.90;;;2.80;;
68938;SDS011;59064;45.294;11.816;2023-07-28T00:30:49;5.50;;;3.20;;
68938;SDS011;59064;45.294;11.816;2023-07-28T00:33:16;5.10;;;2.90;;
68938;SDS011;59064;45.294;11.816;2023-07-28T00:35:42;5.00;;;2.50;;
68938;SDS011;59064;45.294;11.816;2023-07-28T00:38:08;5.80;;;2.60;;
68938;SDS011;59064;45.294;11.816;2023-07-28T00:40:35;5.20;;;2.80;;
68938;SDS011;59064;45.294;11.816;2023-07-28T00:43:01;4.80;;;2.80;;
68938;SDS011;59064;45.294;11.816;2023-07-28T00:45:28;4.40;;;2.60;;
68938;SDS011;59064;45.294;11.816;2023-07-28T00:47:56;4.50;;;2.20;;
68938;SDS011;59064;45.294;11.816;2023-07-28T00:50:25;6.50;;;2.60;;
68938;SDS011;59064;45.294;11.816;2023-07-28T00:52:51;5.90;;;2.80;;
68938;SDS011;59064;45.294;11.816;2023-07-28T00:55:17;6.80;;;3.10;;
68938;SDS011;59064;45.294;11.816;2023-07-28T00:57:44;5.30;;;2.70;;
68938;SDS011;59064;45.294;11.816;2023-07-28T01:00:10;8.90;;;2.90;;
68938;SDS011;59064;45.294;11.816;2023-07-28T01:02:36;5.20;;;2.80;;
68938;SDS011;59064;45.294;11.816;2023-07-28T01:05:03;6.00;;;3.00;;
68938;SDS011;59064;45.294;11.816;2023-07-28T01:10:13;7.90;;;3.30;;
68938;SDS011;59064;45.294;11.816;2023-07-28T01:12:51;7.00;;;2.90;;
68938;SDS011;59064;45.294;11.816;2023-07-28T01:15:17;5.10;;;2.80;;
68938;SDS011;59064;45.294;11.816;2023-07-28T01:17:42;5.30;;;3.10;;
68938;SDS011;59064;45.294;11.816;2023-07-28T01:20:08;4.80;;;2.70;;
68938;SDS011;59064;45.294;11.816;2023-07-28T01:25:49;5.90;;;3.20;;
68938;SDS011;59064;45.294;11.816;2023-07-28T01:28:20;6.00;;;2.70;;
68938;SDS011;59064;45.294;11.816;2023-07-28T01:30:46;5.10;;;2.80;;
68938;SDS011;59064;45.294;11.816;2023-07-28T01:33:13;5.80;;;3.00;;
68938;SDS011;59064;45.294;11.816;2023-07-28T01:35:38;7.50;;;3.50;;
68938;SDS011;59064;45.294;11.816;2023-07-28T01:38:04;6.30;;;2.80;;
68938;SDS011;59064;45.294;11.816;2023-07-28T01:40:30;4.80;;;2.90;;
68938;SDS011;59064;45.294;11.816;2023-07-28T01:42:56;6.90;;;3.10;;
68938;SDS011;59064;45.294;11.816;2023-07-28T01:45:22;5.70;;;3.50;;
68938;SDS011;59064;45.294;11.816;2023-07-28T01:47:48;6.40;;;3.50;;
68938;SDS011;59064;45.294;11.816;2023-07-28T01:50:13;7.10;;;3.60;;
68938;SDS011;59064;45.294;11.816;2023-07-28T01:52:39;6.20;;;3.60;;
68938;SDS011;59064;45.294;11.816;2023-07-28T01:55:05;5.50;;;3.30;;
68938;SDS011;59064;45.294;11.816;2023-07-28T01:57:35;6.80;;;3.70;;
68938;SDS011;59064;45.294;11.816;2023-07-28T02:00:04;6.10;;;3.80;;
68938;SDS011;59064;45.294;11.816;2023-07-28T02:02:30;8.60;;;3.60;;
68938;SDS011;59064;45.294;11.816;2023-07-28T02:04:55;6.80;;;3.90;;
68938;SDS011;59064;45.294;11.816;2023-07-28T02:07:21;10.50;;;4.70;;
68938;SDS011;59064;45.294;11.816;2023-07-28T02:09:46;7.90;;;4.10;;
68938;SDS011;59064;45.294;11.816;2023-07-28T02:12:12;8.10;;;4.10;;
68938;SDS011;59064;45.294;11.816;2023-07-28T02:14:38;6.30;;;3.50;;
68938;SDS011;59064;45.294;11.816;2023-07-28T02:17:03;7.00;;;3.80;;
68938;SDS011;59064;45.294;11.816;2023-07-28T02:19:29;5.10;;;3.20;;
68938;SDS011;59064;45.294;11.816;2023-07-28T02:21:54;8.80;;;4.50;;
68938;SDS011;59064;45.294;11.816;2023-07-28T02:24:20;4.80;;;3.10;;
68938;SDS011;59064;45.294;11.816;2023-07-28T02:26:46;5.50;;;3.50;;
68938;SDS011;59064;45.294;11.816;2023-07-28T02:29:11;7.20;;;3.80;;
68938;SDS011;59064;45.294;11.816;2023-07-28T02:31:37;6.20;;;3.60;;
68938;SDS011;59064;45.294;11.816;2023-07-28T02:34:02;5.90;;;3.60;;
68938;SDS011;59064;45.294;11.816;2023-07-28T02:36:28;6.40;;;3.80;;
68938;SDS011;59064;45.294;11.816;2023-07-28T02:38:53;6.90;;;3.50;;
68938;SDS011;59064;45.294;11.816;2023-07-28T02:41:19;5.30;;;3.60;;
68938;SDS011;59064;45.294;11.816;2023-07-28T02:43:45;5.10;;;2.90;;
68938;SDS011;59064;45.294;11.816;2023-07-28T02:46:11;7.30;;;3.80;;
68938;SDS011;59064;45.294;11.816;2023-07-28T02:48:36;6.80;;;3.40;;
68938;SDS011;59064;45.294;11.816;2023-07-28T02:51:02;5.40;;;3.60;;
68938;SDS011;59064;45.294;11.816;2023-07-28T02:53:27;8.70;;;3.50;;
68938;SDS011;59064;45.294;11.816;2023-07-28T02:55:53;5.60;;;3.10;;
68938;SDS011;59064;45.294;11.816;2023-07-28T02:58:19;4.90;;;2.90;;
68938;SDS011;59064;45.294;11.816;2023-07-28T03:00:45;7.90;;;3.50;;
68938;SDS011;59064;45.294;11.816;2023-07-28T03:03:12;8.10;;;3.50;;
68938;SDS011;59064;45.294;11.816;2023-07-28T03:05:38;5.90;;;3.30;;
68938;SDS011;59064;45.294;11.816;2023-07-28T03:08:04;5.20;;;3.30;;
68938;SDS011;59064;45.294;11.816;2023-07-28T03:10:31;6.00;;;3.40;;
68938;SDS011;59064;45.294;11.816;2023-07-28T03:12:57;7.20;;;3.40;;
68938;SDS011;59064;45.294;11.816;2023-07-28T03:15:23;6.30;;;3.40;;
68938;SDS011;59064;45.294;11.816;2023-07-28T03:17:49;5.20;;;3.20;;
68938;SDS011;59064;45.294;11.816;2023-07-28T03:20:16;5.90;;;3.20;;
68938;SDS011;59064;45.294;11.816;2023-07-28T03:22:42;7.00;;;3.20;;
68938;SDS011;59064;45.294;11.816;2023-07-28T03:25:08;5.20;;;2.90;;
68938;SDS011;59064;45.294;11.816;2023-07-28T03:27:34;6.00;;;2.90;;
68938;SDS011;59064;45.294;11.816;2023-07-28T03:30:00;5.90;;;3.00;;
68938;SDS011;59064;45.294;11.816;2023-07-28T03:32:27;7.80;;;3.00;;
68938;SDS011;59064;45.294;11.816;2023-07-28T03:34:52;5.30;;;2.80;;
68938;SDS011;59064;45.294;11.816;2023-07-28T03:37:18;5.70;;;2.80;;
68938;SDS011;59064;45.294;11.816;2023-07-28T03:39:44;5.20;;;2.90;;
68938;SDS011;59064;45.294;11.816;2023-07-28T03:42:10;6.50;;;2.70;;
68938;SDS011;59064;45.294;11.816;2023-07-28T03:44:35;6.90;;;3.20;;
68938;SDS011;59064;45.294;11.816;2023-07-28T03:47:03;5.30;;;2.50;;
68938;SDS011;59064;45.294;11.816;2023-07-28T03:49:29;5.00;;;2.80;;
68938;SDS011;59064;45.294;11.816;2023-07-28T03:51:55;6.20;;;3.10;;
68938;SDS011;59064;45.294;11.816;2023-07-28T03:54:21;4.00;;;2.20;;
68938;SDS011;59064;45.294;11.816;2023-07-28T03:56:46;5.60;;;2.60;;
68938;SDS011;59064;45.294;11.816;2023-07-28T03:59:12;4.80;;;2.80;;
68938;SDS011;59064;45.294;11.816;2023-07-28T04:01:37;4.70;;;2.80;;
68938;SDS011;59064;45.294;11.816;2023-07-28T04:04:03;5.80;;;2.90;;
68938;SDS011;59064;45.294;11.816;2023-07-28T04:06:42;5.30;;;2.50;;
68938;SDS011;59064;45.294;11.816;2023-07-28T04:09:13;6.80;;;2.70;;
68938;SDS011;59064;45.294;11.816;2023-07-28T04:11:40;5.00;;;2.70;;
68938;SDS011;59064;45.294;11.816;2023-07-28T04:14:06;5.70;;;2.80;;
68938;SDS011;59064;45.294;11.816;2023-07-28T04:16:32;4.70;;;2.80;;
68938;SDS011;59064;45.294;11.816;2023-07-28T04:18:58;5.40;;;2.90;;
68938;SDS011;59064;45.294;11.816;2023-07-28T04:21:24;5.60;;;3.00;;
68938;SDS011;59064;45.294;11.816;2023-07-28T04:23:50;4.60;;;2.70;;
68938;SDS011;59064;45.294;11.816;2023-07-28T04:26:17;4.90;;;2.60;;
68938;SDS011;59064;45.294;11.816;2023-07-28T04:28:43;7.40;;;2.60;;
68938;SDS011;59064;45.294;11.816;2023-07-28T04:31:08;6.30;;;2.60;;
68938;SDS011;59064;45.294;11.816;2023-07-28T04:33:34;4.90;;;2.70;;
68938;SDS011;59064;45.294;11.816;2023-07-28T04:36:03;4.70;;;2.60;;
68938;SDS011;59064;45.294;11.816;2023-07-28T04:38:29;5.60;;;2.70;;
68938;SDS011;59064;45.294;11.816;2023-07-28T04:40:54;5.00;;;2.50;;
68938;SDS011;59064;45.294;11.816;2023-07-28T04:43:20;6.20;;;2.40;;
68938;SDS011;59064;45.294;11.816;2023-07-28T04:45:46;5.40;;;2.60;;
68938;SDS011;59064;45.294;11.816;2023-07-28T04:48:11;5.50;;;2.70;;
68938;SDS011;59064;45.294;11.816;2023-07-28T04:50:37;4.80;;;2.60;;
68938;SDS011;59064;45.294;11.816;2023-07-28T04:53:03;4.80;;;2.40;;
68938;SDS011;59064;45.294;11.816;2023-07-28T04:55:29;5.30;;;2.50;;
68938;SDS011;59064;45.294;11.816;2023-07-28T04:57:55;4.80;;;2.40;;
68938;SDS011;59064;45.294;11.816;2023-07-28T05:00:21;6.60;;;2.60;;
68938;SDS011;59064;45.294;11.816;2023-07-28T05:02:48;6.80;;;2.70;;
68938;SDS011;59064;45.294;11.816;2023-07-28T05:05:13;4.30;;;2.60;;
68938;SDS011;59064;45.294;11.816;2023-07-28T05:07:39;5.50;;;2.60;;
68938;SDS011;59064;45.294;11.816;2023-07-28T05:10:05;5.00;;;2.80;;
68938;SDS011;59064;45.294;11.816;2023-07-28T05:12:31;6.90;;;3.40;;
68938;SDS011;59064;45.294;11.816;2023-07-28T05:14:56;5.60;;;3.30;;
68938;SDS011;59064;45.294;11.816;2023-07-28T05:17:22;7.30;;;3.40;;
68938;SDS011;59064;45.294;11.816;2023-07-28T05:19:49;5.50;;;3.00;;
68938;SDS011;59064;45.294;11.816;2023-07-28T05:22:17;5.10;;;2.80;;
68938;SDS011;59064;45.294;11.816;2023-07-28T05:24:43;7.80;;;2.70;;
68938;SDS011;59064;45.294;11.816;2023-07-28T05:27:10;6.30;;;2.90;;
68938;SDS011;59064;45.294;11.816;2023-07-28T05:29:36;5.60;;;3.30;;
68938;SDS011;59064;45.294;11.816;2023-07-28T05:32:03;5.20;;;2.80;;
68938;SDS011;59064;45.294;11.816;2023-07-28T05:34:29;6.20;;;3.30;;
68938;SDS011;59064;45.294;11.816;2023-07-28T05:36:55;5.30;;;3.10;;
68938;SDS011;59064;45.294;11.816;2023-07-28T05:39:21;5.30;;;2.90;;
68938;SDS011;59064;45.294;11.816;2023-07-28T05:41:47;5.50;;;3.10;;
68938;SDS011;59064;45.294;11.816;2023-07-28T05:44:13;4.90;;;3.00;;
68938;SDS011;59064;45.294;11.816;2023-07-28T05:46:39;6.50;;;3.40;;
68938;SDS011;59064;45.294;11.816;2023-07-28T05:49:04;6.20;;;3.20;;
68938;SDS011;59064;45.294;11.816;2023-07-28T05:51:30;6.10;;;2.80;;
68938;SDS011;59064;45.294;11.816;2023-07-28T05:53:56;5.20;;;3.30;;
68938;SDS011;59064;45.294;11.816;2023-07-28T05:56:22;5.70;;;2.90;;
68938;SDS011;59064;45.294;11.816;2023-07-28T05:58:48;5.20;;;3.20;;
68938;SDS011;59064;45.294;11.816;2023-07-28T06:01:15;5.90;;;3.00;;
68938;SDS011;59064;45.294;11.816;2023-07-28T06:03:41;5.80;;;3.40;;
68938;SDS011;59064;45.294;11.816;2023-07-28T06:06:06;5.80;;;3.30;;
68938;SDS011;59064;45.294;11.816;2023-07-28T06:08:32;5.70;;;3.20;;
68938;SDS011;59064;45.294;11.816;2023-07-28T06:10:59;6.90;;;3.20;;
68938;SDS011;59064;45.294;11.816;2023-07-28T06:13:24;6.30;;;3.20;;
68938;SDS011;59064;45.294;11.816;2023-07-28T06:15:53;6.30;;;2.90;;
68938;SDS011;59064;45.294;11.816;2023-07-28T06:18:20;7.10;;;3.30;;
68938;SDS011;59064;45.294;11.816;2023-07-28T06:20:47;6.40;;;2.70;;
68938;SDS011;59064;45.294;11.816;2023-07-28T06:23:13;7.20;;;2.50;;
68938;SDS011;59064;45.294;11.816;2023-07-28T06:25:38;6.80;;;3.10;;
68938;SDS011;59064;45.294;11.816;2023-07-28T06:28:12;6.50;;;3.00;;
68938;SDS011;59064;45.294;11.816;2023-07-28T06:30:38;7.60;;;3.10;;
68938;SDS011;59064;45.294;11.816;2023-07-28T06:33:06;5.00;;;2.10;;
68938;SDS011;59064;45.294;11.816;2023-07-28T06:35:32;5.60;;;3.10;;
68938;SDS011;59064;45.294;11.816;2023-07-28T06:37:59;6.10;;;3.30;;
68938;SDS011;59064;45.294;11.816;2023-07-28T06:40:25;5.40;;;2.90;;
68938;SDS011;59064;45.294;11.816;2023-07-28T06:42:51;6.90;;;3.10;;
68938;SDS011;59064;45.294;11.816;2023-07-28T06:45:17;5.80;;;3.10;;
68938;SDS011;59064;45.294;11.816;2023-07-28T06:47:42;9.30;;;3.30;;
68938;SDS011;59064;45.294;11.816;2023-07-28T06:50:10;5.40;;;2.90;;
68938;SDS011;59064;45.294;11.816;2023-07-28T06:52:37;5.10;;;3.30;;
68938;SDS011;59064;45.294;11.816;2023-07-28T06:55:03;6.00;;;3.40;;
68938;SDS011;59064;45.294;11.816;2023-07-28T06:57:29;6.40;;;3.10;;
68938;SDS011;59064;45.294;11.816;2023-07-28T06:59:57;5.80;;;3.50;;
68938;SDS011;59064;45.294;11.816;2023-07-28T07:02:22;5.90;;;3.90;;
68938;SDS011;59064;45.294;11.816;2023-07-28T07:04:48;7.40;;;3.60;;
68938;SDS011;59064;45.294;11.816;2023-07-28T07:07:15;6.90;;;3.60;;
68938;SDS011;59064;45.294;11.816;2023-07-28T07:09:40;6.30;;;3.50;;
68938;SDS011;59064;45.294;11.816;2023-07-28T07:12:08;9.40;;;3.80;;
68938;SDS011;59064;45.294;11.816;2023-07-28T07:14:34;6.10;;;3.40;;
68938;SDS011;59064;45.294;11.816;2023-07-28T07:17:00;6.30;;;3.40;;
68938;SDS011;59064;45.294;11.816;2023-07-28T07:19:27;8.20;;;3.90;;
68938;SDS011;59064;45.294;11.816;2023-07-28T07:21:54;4.70;;;3.00;;
68938;SDS011;59064;45.294;11.816;2023-07-28T07:24:21;6.20;;;3.30;;
68938;SDS011;59064;45.294;11.816;2023-07-28T07:26:46;6.70;;;3.50;;
68938;SDS011;59064;45.294;11.816;2023-07-28T07:29:12;6.40;;;3.90;;
68938;SDS011;59064;45.294;11.816;2023-07-28T07:31:38;6.00;;;3.30;;
68938;SDS011;59064;45.294;11.816;2023-07-28T07:34:04;7.70;;;3.50;;
68938;SDS011;59064;45.294;11.816;2023-07-28T07:36:30;5.90;;;3.50;;
68938;SDS011;59064;45.294;11.816;2023-07-28T07:38:56;5.70;;;3.30;;
68938;SDS011;59064;45.294;11.816;2023-07-28T07:41:22;7.90;;;3.60;;
68938;SDS011;59064;45.294;11.816;2023-07-28T07:43:49;6.90;;;3.60;;
68938;SDS011;59064;45.294;11.816;2023-07-28T07:46:18;6.00;;;3.50;;
68938;SDS011;59064;45.294;11.816;2023-07-28T07:48:44;5.30;;;3.10;;
68938;SDS011;59064;45.294;11.816;2023-07-28T07:51:11;7.50;;;3.50;;
68938;SDS011;59064;45.294;11.816;2023-07-28T07:53:37;5.60;;;3.30;;
68938;SDS011;59064;45.294;11.816;2023-07-28T07:56:04;5.50;;;3.60;;
68938;SDS011;59064;45.294;11.816;2023-07-28T07:58:30;6.50;;;3.80;;
68938;SDS011;59064;45.294;11.816;2023-07-28T08:00:57;6.50;;;3.10;;
68938;SDS011;59064;45.294;11.816;2023-07-28T08:03:23;5.70;;;2.80;;
68938;SDS011;59064;45.294;11.816;2023-07-28T08:05:50;5.60;;;3.00;;
68938;SDS011;59064;45.294;11.816;2023-07-28T08:08:16;6.10;;;3.10;;
68938;SDS011;59064;45.294;11.816;2023-07-28T08:10:44;5.90;;;3.10;;
68938;SDS011;59064;45.294;11.816;2023-07-28T08:13:17;6.00;;;2.80;;
68938;SDS011;59064;45.294;11.816;2023-07-28T08:15:43;6.20;;;2.30;;
68938;SDS011;59064;45.294;11.816;2023-07-28T08:18:11;4.10;;;1.90;;
68938;SDS011;59064;45.294;11.816;2023-07-28T08:20:39;5.00;;;1.90;;
68938;SDS011;59064;45.294;11.816;2023-07-28T08:23:05;4.00;;;1.80;;
68938;SDS011;59064;45.294;11.816;2023-07-28T08:25:32;4.50;;;2.10;;
68938;SDS011;59064;45.294;11.816;2023-07-28T08:27:59;3.80;;;2.00;;
68938;SDS011;59064;45.294;11.816;2023-07-28T08:30:25;5.70;;;2.40;;
68938;SDS011;59064;45.294;11.816;2023-07-28T08:32:50;4.10;;;1.90;;
68938;SDS011;59064;45.294;11.816;2023-07-28T08:35:16;5.00;;;1.90;;
68938;SDS011;59064;45.294;11.816;2023-07-28T08:37:42;4.80;;;1.90;;
68938;SDS011;59064;45.294;11.816;2023-07-28T08:40:07;4.70;;;1.90;;
68938;SDS011;59064;45.294;11.816;2023-07-28T08:42:40;4.30;;;2.00;;
68938;SDS011;59064;45.294;11.816;2023-07-28T08:45:07;5.00;;;2.50;;
68938;SDS011;59064;45.294;11.816;2023-07-28T08:47:33;5.50;;;2.10;;
68938;SDS011;59064;45.294;11.816;2023-07-28T08:49:59;5.70;;;1.80;;
68938;SDS011;59064;45.294;11.816;2023-07-28T08:52:25;7.70;;;1.80;;
68938;SDS011;59064;45.294;11.816;2023-07-28T08:54:51;3.00;;;1.50;;
68938;SDS011;59064;45.294;11.816;2023-07-28T08:57:17;3.10;;;1.50;;
68938;SDS011;59064;45.294;11.816;2023-07-28T08:59:45;3.00;;;1.40;;
68938;SDS011;59064;45.294;11.816;2023-07-28T09:02:18;3.40;;;1.50;;
68938;SDS011;59064;45.294;11.816;2023-07-28T09:04:45;4.30;;;1.60;;
68938;SDS011;59064;45.294;11.816;2023-07-28T09:07:13;2.90;;;1.30;;
68938;SDS011;59064;45.294;11.816;2023-07-28T09:09:39;4.10;;;1.50;;
68938;SDS011;59064;45.294;11.816;2023-07-28T09:12:08;6.00;;;1.70;;
68938;SDS011;59064;45.294;11.816;2023-07-28T09:14:35;4.30;;;1.30;;
68938;SDS011;59064;45.294;11.816;2023-07-28T09:17:09;3.60;;;1.60;;
68938;SDS011;59064;45.294;11.816;2023-07-28T09:19:50;3.50;;;1.40;;
68938;SDS011;59064;45.294;11.816;2023-07-28T09:22:17;3.10;;;1.30;;
68938;SDS011;59064;45.294;11.816;2023-07-28T09:24:44;3.70;;;1.50;;
68938;SDS011;59064;45.294;11.816;2023-07-28T09:27:20;4.60;;;1.80;;
68938;SDS011;59064;45.294;11.816;2023-07-28T09:29:54;4.40;;;1.60;;
68938;SDS011;59064;45.294;11.816;2023-07-28T09:32:31;4.30;;;1.70;;
68938;SDS011;59064;45.294;11.816;2023-07-28T09:37:47;4.30;;;2.50;;
68938;SDS011;59064;45.294;11.816;2023-07-28T09:40:19;3.90;;;1.50;;
68938;SDS011;59064;45.294;11.816;2023-07-28T09:42:47;3.80;;;1.80;;
68938;SDS011;59064;45.294;11.816;2023-07-28T09:45:18;3.20;;;1.70;;
68938;SDS011;59064;45.294;11.816;2023-07-28T09:47:45;5.60;;;1.80;;
68938;SDS011;59064;45.294;11.816;2023-07-28T09:50:15;4.10;;;1.40;;
68938;SDS011;59064;45.294;11.816;2023-07-28T09:52:46;5.70;;;1.80;;
68938;SDS011;59064;45.294;11.816;2023-07-28T09:55:15;3.40;;;1.30;;
68938;SDS011;59064;45.294;11.816;2023-07-28T09:57:48;5.10;;;1.50;;
68938;SDS011;59064;45.294;11.816;2023-07-28T10:00:20;5.70;;;1.50;;
68938;SDS011;59064;45.294;11.816;2023-07-28T10:02:47;6.10;;;1.80;;
68938;SDS011;59064;45.294;11.816;2023-07-28T10:05:14;3.40;;;1.50;;
68938;SDS011;59064;45.294;11.816;2023-07-28T10:07:45;3.70;;;1.40;;
68938;SDS011;59064;45.294;11.816;2023-07-28T10:10:13;4.20;;;1.30;;
68938;SDS011;59064;45.294;11.816;2023-07-28T10:12:49;4.50;;;1.20;;
68938;SDS011;59064;45.294;11.816;2023-07-28T10:15:17;3.10;;;1.10;;
68938;SDS011;59064;45.294;11.816;2023-07-28T10:17:55;4.00;;;1.40;;
68938;SDS011;59064;45.294;11.816;2023-07-28T10:23:02;3.50;;;1.20;;
68938;SDS011;59064;45.294;11.816;2023-07-28T10:25:35;4.30;;;1.40;;
68938;SDS011;59064;45.294;11.816;2023-07-28T10:28:02;3.10;;;1.30;;
68938;SDS011;59064;45.294;11.816;2023-07-28T10:30:30;3.70;;;1.40;;
68938;SDS011;59064;45.294;11.816;2023-07-28T10:33:01;3.30;;;1.10;;
68938;SDS011;59064;45.294;11.816;2023-07-28T10:35:28;3.10;;;1.30;;
68938;SDS011;59064;45.294;11.816;2023-07-28T10:37:56;3.10;;;1.30;;
68938;SDS011;59064;45.294;11.816;2023-07-28T10:40:33;5.40;;;1.10;;
68938;SDS011;59064;45.294;11.816;2023-07-28T10:43:04;3.80;;;1.30;;
68938;SDS011;59064;45.294;11.816;2023-07-28T10:45:31;3.20;;;1.30;;
68938;SDS011;59064;45.294;11.816;2023-07-28T10:47:58;3.50;;;1.10;;
68938;SDS011;59064;45.294;11.816;2023-07-28T10:50:29;3.80;;;1.40;;
68938;SDS011;59064;45.294;11.816;2023-07-28T10:52:56;4.50;;;1.30;;
68938;SDS011;59064;45.294;11.816;2023-07-28T10:55:24;3.70;;;1.50;;
68938;SDS011;59064;45.294;11.816;2023-07-28T10:57:52;4.10;;;1.40;;
68938;SDS011;59064;45.294;11.816;2023-07-28T11:00:20;4.40;;;1.40;;
68938;SDS011;59064;45.294;11.816;2023-07-28T11:02:49;3.10;;;1.20;;
68938;SDS011;59064;45.294;11.816;2023-07-28T11:07:58;4.10;;;1.30;;
68938;SDS011;59064;45.294;11.816;2023-07-28T11:10:28;3.10;;;1.40;;
68938;SDS011;59064;45.294;11.816;2023-07-28T11:13:01;4.90;;;1.40;;
68938;SDS011;59064;45.294;11.816;2023-07-28T11:15:28;3.70;;;1.30;;
68938;SDS011;59064;45.294;11.816;2023-07-28T11:17:55;7.00;;;1.60;;
68938;SDS011;59064;45.294;11.816;2023-07-28T11:20:25;3.70;;;1.20;;
68938;SDS011;59064;45.294;11.816;2023-07-28T11:25:23;3.50;;;1.40;;
68938;SDS011;59064;45.294;11.816;2023-07-28T11:27:51;2.90;;;1.20;;
68938;SDS011;59064;45.294;11.816;2023-07-28T11:30:18;3.60;;;1.40;;
68938;SDS011;59064;45.294;11.816;2023-07-28T11:32:47;3.50;;;1.30;;
68938;SDS011;59064;45.294;11.816;2023-07-28T11:35:15;3.10;;;1.30;;
68938;SDS011;59064;45.294;11.816;2023-07-28T11:37:43;4.10;;;1.40;;
68938;SDS011;59064;45.294;11.816;2023-07-28T11:40:11;5.50;;;1.70;;
68938;SDS011;59064;45.294;11.816;2023-07-28T11:42:44;3.70;;;1.50;;
68938;SDS011;59064;45.294;11.816;2023-07-28T11:45:13;3.20;;;1.40;;
68938;SDS011;59064;45.294;11.816;2023-07-28T11:48:00;4.50;;;1.40;;
68938;SDS011;59064;45.294;11.816;2023-07-28T11:50:35;3.40;;;1.30;;
68938;SDS011;59064;45.294;11.816;2023-07-28T11:53:04;4.80;;;1.40;;
68938;SDS011;59064;45.294;11.816;2023-07-28T11:55:35;3.10;;;1.30;;
68938;SDS011;59064;45.294;11.816;2023-07-28T11:58:02;3.10;;;1.10;;
68938;SDS011;59064;45.294;11.816;2023-07-28T12:00:31;2.80;;;1.30;;
68938;SDS011;59064;45.294;11.816;2023-07-28T12:03:18;3.60;;;1.60;;
68938;SDS011;59064;45.294;11.816;2023-07-28T12:06:05;6.10;;;1.60;;
68938;SDS011;59064;45.294;11.816;2023-07-28T12:08:38;3.70;;;1.70;;
68938;SDS011;59064;45.294;11.816;2023-07-28T12:11:04;4.40;;;1.60;;
68938;SDS011;59064;45.294;11.816;2023-07-28T12:13:31;6.10;;;1.60;;
68938;SDS011;59064;45.294;11.816;2023-07-28T12:15:57;3.50;;;1.40;;
68938;SDS011;59064;45.294;11.816;2023-07-28T12:18:23;4.40;;;1.40;;
68938;SDS011;59064;45.294;11.816;2023-07-28T12:20:55;4.30;;;1.50;;
68938;SDS011;59064;45.294;11.816;2023-07-28T12:23:22;3.20;;;1.20;;
68938;SDS011;59064;45.294;11.816;2023-07-28T12:25:48;5.10;;;1.50;;
68938;SDS011;59064;45.294;11.816;2023-07-28T12:28:15;4.70;;;1.50;;
68938;SDS011;59064;45.294;11.816;2023-07-28T12:30:41;5.10;;;1.90;;
68938;SDS011;59064;45.294;11.816;2023-07-28T12:33:09;4.80;;;1.50;;
68938;SDS011;59064;45.294;11.816;2023-07-28T12:35:34;3.30;;;1.30;;
68938;SDS011;59064;45.294;11.816;2023-07-28T12:38:03;3.60;;;1.40;;
68938;SDS011;59064;45.294;11.816;2023-07-28T12:40:31;3.40;;;1.10;;
68938;SDS011;59064;45.294;11.816;2023-07-28T12:42:59;3.00;;;1.20;;
68938;SDS011;59064;45.294;11.816;2023-07-28T12:45:26;3.60;;;1.30;;
68938;SDS011;59064;45.294;11.816;2023-07-28T12:47:53;4.60;;;1.50;;
68938;SDS011;59064;45.294;11.816;2023-07-28T12:50:20;4.00;;;1.50;;
68938;SDS011;59064;45.294;11.816;2023-07-28T12:52:47;3.40;;;1.30;;
68938;SDS011;59064;45.294;11.816;2023-07-28T12:55:14;3.60;;;1.50;;
68938;SDS011;59064;45.294;11.816;2023-07-28T12:57:40;4.90;;;1.70;;
68938;SDS011;59064;45.294;11.816;2023-07-28T13:00:06;5.00;;;1.60;;
68938;SDS011;59064;45.294;11.816;2023-07-28T13:02:41;4.60;;;1.50;;
68938;SDS011;59064;45.294;11.816;2023-07-28T13:05:08;3.80;;;1.50;;
68938;SDS011;59064;45.294;11.816;2023-07-28T13:07:38;4.00;;;1.30;;
68938;SDS011;59064;45.294;11.816;2023-07-28T13:10:07;4.40;;;1.30;;
68938;SDS011;59064;45.294;11.816;2023-07-28T13:12:37;5.30;;;1.60;;
68938;SDS011;59064;45.294;11.816;2023-07-28T13:15:03;4.40;;;1.80;;
68938;SDS011;59064;45.294;11.816;2023-07-28T13:17:29;4.20;;;1.40;;
68938;SDS011;59064;45.294;11.816;2023-07-28T13:19:55;4.30;;;1.50;;
68938;SDS011;59064;45.294;11.816;2023-07-28T13:22:23;4.00;;;1.70;;
68938;SDS011;59064;45.294;11.816;2023-07-28T13:24:49;3.50;;;1.50;;
68938;SDS011;59064;45.294;11.816;2023-07-28T13:27:14;4.50;;;1.40;;
68938;SDS011;59064;45.294;11.816;2023-07-28T13:29:40;4.70;;;1.50;;
68938;SDS011;59064;45.294;11.816;2023-07-28T13:32:16;4.50;;;1.80;;
68938;SDS011;59064;45.294;11.816;2023-07-28T13:34:43;3.70;;;1.30;;
68938;SDS011;59064;45.294;11.816;2023-07-28T13:37:09;3.30;;;1.40;;
68938;SDS011;59064;45.294;11.816;2023-07-28T13:39:34;4.50;;;1.30;;
68938;SDS011;59064;45.294;11.816;2023-07-28T13:42:00;4.80;;;1.60;;
68938;SDS011;59064;45.294;11.816;2023-07-28T13:44:26;4.40;;;1.50;;
68938;SDS011;59064;45.294;11.816;2023-07-28T13:46:51;4.00;;;1.60;;
68938;SDS011;59064;45.294;11.816;2023-07-28T13:49:17;4.00;;;1.40;;
68938;SDS011;59064;45.294;11.816;2023-07-28T13:51:43;3.10;;;1.30;;
68938;SDS011;59064;45.294;11.816;2023-07-28T13:54:10;4.40;;;1.50;;
68938;SDS011;59064;45.294;11.816;2023-07-28T13:56:35;4.00;;;1.60;;
68938;SDS011;59064;45.294;11.816;2023-07-28T13:59:01;4.10;;;1.60;;
68938;SDS011;59064;45.294;11.816;2023-07-28T14:01:26;3.60;;;1.60;;
68938;SDS011;59064;45.294;11.816;2023-07-28T14:03:52;3.90;;;1.50;;
68938;SDS011;59064;45.294;11.816;2023-07-28T14:06:19;4.80;;;1.30;;
68938;SDS011;59064;45.294;11.816;2023-07-28T14:08:44;4.10;;;1.50;;
68938;SDS011;59064;45.294;11.816;2023-07-28T14:11:10;4.10;;;1.60;;
68938;SDS011;59064;45.294;11.816;2023-07-28T14:13:36;3.70;;;1.60;;
68938;SDS011;59064;45.294;11.816;2023-07-28T14:16:01;3.50;;;1.40;;
68938;SDS011;59064;45.294;11.816;2023-07-28T14:18:27;5.10;;;1.80;;
68938;SDS011;59064;45.294;11.816;2023-07-28T14:20:52;4.30;;;1.60;;
68938;SDS011;59064;45.294;11.816;2023-07-28T14:23:22;3.70;;;1.50;;
68938;SDS011;59064;45.294;11.816;2023-07-28T14:25:49;3.80;;;1.30;;
68938;SDS011;59064;45.294;11.816;2023-07-28T14:28:15;4.50;;;1.30;;
68938;SDS011;59064;45.294;11.816;2023-07-28T14:30:40;3.30;;;1.50;;
68938;SDS011;59064;45.294;11.816;2023-07-28T14:33:08;3.50;;;1.60;;
68938;SDS011;59064;45.294;11.816;2023-07-28T14:35:34;3.80;;;1.70;;
68938;SDS011;59064;45.294;11.816;2023-07-28T14:37:59;4.60;;;1.80;;
68938;SDS011;59064;45.294;11.816;2023-07-28T14:40:36;4.70;;;2.00;;
68938;SDS011;59064;45.294;11.816;2023-07-28T14:43:03;4.00;;;1.70;;
68938;SDS011;59064;45.294;11.816;2023-07-28T14:45:29;4.10;;;1.50;;
68938;SDS011;59064;45.294;11.816;2023-07-28T14:47:55;4.30;;;1.80;;
68938;SDS011;59064;45.294;11.816;2023-07-28T14:50:21;4.00;;;1.50;;